sensor_id;sensor_type;location;lat;lon;timestamp;P1;durP1;ratioP1;P2;durP2;ratioP2
12145;SDS011;6136;47.032;15.398;2024-03-23T00:53:14;10.03;;;6.93;;
12145;SDS011;6136;47.032;15.398;2024-03-23T00:55:41;9.20;;;7.13;;
12145;SDS011;6136;47.032;15.398;2024-03-23T00:58:08;8.70;;;6.77;;
12145;SDS011;6136;47.032;15.398;2024-03-23T01:00:35;8.53;;;6.57;;
12145;SDS011;6136;47.032;15.398;2024-03-23T01:03:01;7.43;;;6.40;;
12145;SDS011;6136;47.032;15.398;2024-03-23T01:05:30;9.17;;;6.63;;
12145;SDS011;6136;47.032;15.398;2024-03-23T01:07:56;9.20;;;7.17;;
12145;SDS011;6136;47.032;15.398;2024-03-23T01:10:23;8.53;;;7.17;;
12145;SDS011;6136;47.032;15.398;2024-03-23T01:12:49;7.30;;;6.60;;
12145;SDS011;6136;47.032;15.398;2024-03-23T01:15:16;9.13;;;7.10;;
12145;SDS011;6136;47.032;15.398;2024-03-23T01:17:42;9.50;;;7.43;;
12145;SDS011;6136;47.032;15.398;2024-03-23T01:20:09;8.30;;;6.70;;
12145;SDS011;6136;47.032;15.398;2024-03-23T01:22:37;9.03;;;6.63;;
12145;SDS011;6136;47.032;15.398;2024-03-23T01:25:04;8.20;;;6.30;;
12145;SDS011;6136;47.032;15.398;2024-03-23T01:27:31;9.93;;;6.40;;
12145;SDS011;6136;47.032;15.398;2024-03-23T01:29:58;8.57;;;6.60;;
12145;SDS011;6136;47.032;15.398;2024-03-23T01:32:24;5.60;;;5.10;;
12145;SDS011;6136;47.032;15.398;2024-03-23T01:34:51;9.83;;;6.30;;
12145;SDS011;6136;47.032;15.398;2024-03-23T01:37:17;6.17;;;5.67;;
12145;SDS011;6136;47.032;15.398;2024-03-23T01:39:46;7.20;;;5.70;;
12145;SDS011;6136;47.032;15.398;2024-03-23T01:42:12;7.23;;;5.50;;
12145;SDS011;6136;47.032;15.398;2024-03-23T01:44:39;6.40;;;5.70;;
12145;SDS011;6136;47.032;15.398;2024-03-23T01:47:06;7.13;;;5.77;;
12145;SDS011;6136;47.032;15.398;2024-03-23T01:49:33;8.63;;;6.77;;
12145;SDS011;6136;47.032;15.398;2024-03-23T01:51:59;10.00;;;5.93;;
12145;SDS011;6136;47.032;15.398;2024-03-23T01:54:27;9.30;;;6.00;;
12145;SDS011;6136;47.032;15.398;2024-03-23T01:56:55;8.30;;;5.60;;
12145;SDS011;6136;47.032;15.398;2024-03-23T01:59:22;7.13;;;6.03;;
12145;SDS011;6136;47.032;15.398;2024-03-23T02:01:49;8.67;;;5.90;;
12145;SDS011;6136;47.032;15.398;2024-03-23T02:04:18;7.77;;;5.50;;
12145;SDS011;6136;47.032;15.398;2024-03-23T02:06:44;7.33;;;5.87;;
12145;SDS011;6136;47.032;15.398;2024-03-23T02:09:11;6.37;;;5.43;;
12145;SDS011;6136;47.032;15.398;2024-03-23T02:11:39;6.13;;;5.40;;
12145;SDS011;6136;47.032;15.398;2024-03-23T02:14:07;10.53;;;5.73;;
12145;SDS011;6136;47.032;15.398;2024-03-23T02:16:33;6.40;;;5.80;;
12145;SDS011;6136;47.032;15.398;2024-03-23T02:19:00;6.90;;;5.27;;
12145;SDS011;6136;47.032;15.398;2024-03-23T02:21:26;7.93;;;5.87;;
12145;SDS011;6136;47.032;15.398;2024-03-23T02:23:59;6.20;;;5.60;;
12145;SDS011;6136;47.032;15.398;2024-03-23T02:26:26;8.73;;;5.20;;
12145;SDS011;6136;47.032;15.398;2024-03-23T02:28:53;7.73;;;5.97;;
12145;SDS011;6136;47.032;15.398;2024-03-23T02:31:19;7.00;;;5.87;;
12145;SDS011;6136;47.032;15.398;2024-03-23T02:33:46;7.70;;;6.30;;
12145;SDS011;6136;47.032;15.398;2024-03-23T02:36:12;5.90;;;5.40;;
12145;SDS011;6136;47.032;15.398;2024-03-23T02:38:39;9.30;;;5.70;;
12145;SDS011;6136;47.032;15.398;2024-03-23T02:41:07;7.07;;;6.10;;
12145;SDS011;6136;47.032;15.398;2024-03-23T02:43:34;11.13;;;6.37;;
12145;SDS011;6136;47.032;15.398;2024-03-23T02:46:00;5.97;;;5.37;;
12145;SDS011;6136;47.032;15.398;2024-03-23T02:48:28;6.20;;;5.60;;
12145;SDS011;6136;47.032;15.398;2024-03-23T02:50:54;7.57;;;5.90;;
12145;SDS011;6136;47.032;15.398;2024-03-23T02:53:21;6.40;;;5.87;;
12145;SDS011;6136;47.032;15.398;2024-03-23T02:55:48;6.20;;;5.60;;
12145;SDS011;6136;47.032;15.398;2024-03-23T02:58:16;8.07;;;5.80;;
12145;SDS011;6136;47.032;15.398;2024-03-23T03:00:42;6.80;;;6.10;;
12145;SDS011;6136;47.032;15.398;2024-03-23T03:03:09;6.60;;;5.70;;
12145;SDS011;6136;47.032;15.398;2024-03-23T03:05:36;7.80;;;6.37;;
12145;SDS011;6136;47.032;15.398;2024-03-23T03:08:02;10.07;;;7.00;;
12145;SDS011;6136;47.032;15.398;2024-03-23T03:10:30;8.63;;;7.43;;
12145;SDS011;6136;47.032;15.398;2024-03-23T03:12:58;9.27;;;7.13;;
12145;SDS011;6136;47.032;15.398;2024-03-23T03:15:26;8.57;;;7.30;;
12145;SDS011;6136;47.032;15.398;2024-03-23T03:17:52;7.43;;;6.73;;
12145;SDS011;6136;47.032;15.398;2024-03-23T03:20:20;9.27;;;7.57;;
12145;SDS011;6136;47.032;15.398;2024-03-23T03:22:47;8.57;;;7.00;;
12145;SDS011;6136;47.032;15.398;2024-03-23T03:25:14;8.90;;;7.57;;
12145;SDS011;6136;47.032;15.398;2024-03-23T03:27:40;9.40;;;7.07;;
12145;SDS011;6136;47.032;15.398;2024-03-23T03:30:08;9.30;;;7.30;;
12145;SDS011;6136;47.032;15.398;2024-03-23T03:32:36;9.07;;;7.33;;
12145;SDS011;6136;47.032;15.398;2024-03-23T03:35:03;8.90;;;6.67;;
12145;SDS011;6136;47.032;15.398;2024-03-23T03:37:30;8.97;;;7.10;;
12145;SDS011;6136;47.032;15.398;2024-03-23T03:39:57;8.93;;;6.70;;
12145;SDS011;6136;47.032;15.398;2024-03-23T03:42:23;8.03;;;6.30;;
12145;SDS011;6136;47.032;15.398;2024-03-23T03:44:50;6.37;;;5.77;;
12145;SDS011;6136;47.032;15.398;2024-03-23T03:47:18;6.70;;;5.97;;
12145;SDS011;6136;47.032;15.398;2024-03-23T03:49:47;7.10;;;5.73;;
12145;SDS011;6136;47.032;15.398;2024-03-23T03:52:13;6.53;;;5.93;;
12145;SDS011;6136;47.032;15.398;2024-03-23T03:54:40;8.47;;;6.60;;
12145;SDS011;6136;47.032;15.398;2024-03-23T03:57:06;7.40;;;6.33;;
12145;SDS011;6136;47.032;15.398;2024-03-23T03:59:33;7.13;;;6.27;;
12145;SDS011;6136;47.032;15.398;2024-03-23T04:01:59;8.60;;;6.57;;
12145;SDS011;6136;47.032;15.398;2024-03-23T04:04:27;7.00;;;6.30;;
12145;SDS011;6136;47.032;15.398;2024-03-23T04:06:59;7.00;;;5.97;;
12145;SDS011;6136;47.032;15.398;2024-03-23T04:09:26;6.73;;;5.90;;
12145;SDS011;6136;47.032;15.398;2024-03-23T04:11:52;6.87;;;5.90;;
12145;SDS011;6136;47.032;15.398;2024-03-23T04:14:20;7.47;;;6.67;;
12145;SDS011;6136;47.032;15.398;2024-03-23T04:16:46;9.63;;;6.10;;
12145;SDS011;6136;47.032;15.398;2024-03-23T04:19:13;9.23;;;6.53;;
12145;SDS011;6136;47.032;15.398;2024-03-23T04:21:40;8.73;;;6.77;;
12145;SDS011;6136;47.032;15.398;2024-03-23T04:24:09;7.13;;;6.40;;
12145;SDS011;6136;47.032;15.398;2024-03-23T04:29:34;6.97;;;6.27;;
12145;SDS011;6136;47.032;15.398;2024-03-23T04:32:01;7.40;;;6.70;;
12145;SDS011;6136;47.032;15.398;2024-03-23T04:34:27;8.67;;;6.60;;
12145;SDS011;6136;47.032;15.398;2024-03-23T04:36:54;9.37;;;6.93;;
12145;SDS011;6136;47.032;15.398;2024-03-23T04:39:22;6.70;;;6.10;;
12145;SDS011;6136;47.032;15.398;2024-03-23T04:41:49;8.20;;;7.00;;
12145;SDS011;6136;47.032;15.398;2024-03-23T04:44:16;12.93;;;8.23;;
12145;SDS011;6136;47.032;15.398;2024-03-23T04:46:43;10.67;;;9.00;;
12145;SDS011;6136;47.032;15.398;2024-03-23T04:49:12;9.40;;;8.30;;
12145;SDS011;6136;47.032;15.398;2024-03-23T04:51:40;10.00;;;8.63;;
12145;SDS011;6136;47.032;15.398;2024-03-23T04:54:11;7.77;;;6.97;;
12145;SDS011;6136;47.032;15.398;2024-03-23T04:56:40;10.07;;;6.90;;
12145;SDS011;6136;47.032;15.398;2024-03-23T04:59:07;8.03;;;6.17;;
12145;SDS011;6136;47.032;15.398;2024-03-23T05:01:34;7.60;;;6.70;;
12145;SDS011;6136;47.032;15.398;2024-03-23T05:04:07;7.40;;;6.27;;
12145;SDS011;6136;47.032;15.398;2024-03-23T05:06:34;7.47;;;6.10;;
12145;SDS011;6136;47.032;15.398;2024-03-23T05:09:01;9.10;;;6.70;;
12145;SDS011;6136;47.032;15.398;2024-03-23T05:11:31;7.00;;;6.40;;
12145;SDS011;6136;47.032;15.398;2024-03-23T05:14:00;10.30;;;6.87;;
12145;SDS011;6136;47.032;15.398;2024-03-23T05:16:28;12.57;;;6.33;;
12145;SDS011;6136;47.032;15.398;2024-03-23T05:18:55;7.83;;;6.07;;
12145;SDS011;6136;47.032;15.398;2024-03-23T05:21:21;8.50;;;6.50;;
12145;SDS011;6136;47.032;15.398;2024-03-23T05:23:48;7.90;;;6.07;;
12145;SDS011;6136;47.032;15.398;2024-03-23T05:26:14;6.77;;;6.07;;
12145;SDS011;6136;47.032;15.398;2024-03-23T05:28:41;7.30;;;6.37;;
12145;SDS011;6136;47.032;15.398;2024-03-23T05:31:09;12.00;;;6.70;;
12145;SDS011;6136;47.032;15.398;2024-03-23T05:33:36;8.37;;;6.03;;
12145;SDS011;6136;47.032;15.398;2024-03-23T05:36:03;8.97;;;6.70;;
12145;SDS011;6136;47.032;15.398;2024-03-23T05:38:34;12.63;;;7.03;;
12145;SDS011;6136;47.032;15.398;2024-03-23T05:41:00;10.07;;;7.77;;
12145;SDS011;6136;47.032;15.398;2024-03-23T05:43:27;13.47;;;7.17;;
12145;SDS011;6136;47.032;15.398;2024-03-23T05:45:54;21.30;;;13.97;;
12145;SDS011;6136;47.032;15.398;2024-03-23T05:48:22;7.53;;;6.83;;
12145;SDS011;6136;47.032;15.398;2024-03-23T05:50:49;9.97;;;7.13;;
12145;SDS011;6136;47.032;15.398;2024-03-23T05:53:17;10.87;;;7.00;;
12145;SDS011;6136;47.032;15.398;2024-03-23T05:55:43;11.50;;;8.00;;
12145;SDS011;6136;47.032;15.398;2024-03-23T05:58:11;13.53;;;9.10;;
12145;SDS011;6136;47.032;15.398;2024-03-23T06:00:37;15.00;;;8.53;;
12145;SDS011;6136;47.032;15.398;2024-03-23T06:03:04;13.10;;;8.43;;
12145;SDS011;6136;47.032;15.398;2024-03-23T06:05:32;13.87;;;8.83;;
12145;SDS011;6136;47.032;15.398;2024-03-23T06:07:59;11.07;;;8.00;;
12145;SDS011;6136;47.032;15.398;2024-03-23T06:10:25;9.00;;;7.60;;
12145;SDS011;6136;47.032;15.398;2024-03-23T06:12:52;11.20;;;7.87;;
12145;SDS011;6136;47.032;15.398;2024-03-23T06:15:18;13.73;;;7.73;;
12145;SDS011;6136;47.032;15.398;2024-03-23T06:17:46;10.70;;;7.23;;
12145;SDS011;6136;47.032;15.398;2024-03-23T06:20:12;9.60;;;7.30;;
12145;SDS011;6136;47.032;15.398;2024-03-23T06:22:40;12.70;;;7.73;;
12145;SDS011;6136;47.032;15.398;2024-03-23T06:25:07;9.07;;;7.93;;
12145;SDS011;6136;47.032;15.398;2024-03-23T06:27:34;9.47;;;7.50;;
12145;SDS011;6136;47.032;15.398;2024-03-23T06:30:01;15.27;;;10.43;;
12145;SDS011;6136;47.032;15.398;2024-03-23T06:32:28;13.87;;;9.23;;
12145;SDS011;6136;47.032;15.398;2024-03-23T06:34:54;15.60;;;9.60;;
12145;SDS011;6136;47.032;15.398;2024-03-23T06:37:21;12.67;;;8.93;;
12145;SDS011;6136;47.032;15.398;2024-03-23T06:39:49;8.30;;;7.50;;
12145;SDS011;6136;47.032;15.398;2024-03-23T06:42:16;13.17;;;8.43;;
12145;SDS011;6136;47.032;15.398;2024-03-23T06:44:43;10.13;;;8.40;;
12145;SDS011;6136;47.032;15.398;2024-03-23T06:47:10;9.97;;;8.40;;
12145;SDS011;6136;47.032;15.398;2024-03-23T06:49:37;9.43;;;7.40;;
12145;SDS011;6136;47.032;15.398;2024-03-23T06:52:04;11.07;;;8.47;;
12145;SDS011;6136;47.032;15.398;2024-03-23T06:54:31;9.97;;;7.77;;
12145;SDS011;6136;47.032;15.398;2024-03-23T06:56:58;8.87;;;7.40;;
12145;SDS011;6136;47.032;15.398;2024-03-23T06:59:25;8.80;;;7.20;;
12145;SDS011;6136;47.032;15.398;2024-03-23T07:01:51;11.30;;;8.13;;
12145;SDS011;6136;47.032;15.398;2024-03-23T07:04:18;12.20;;;8.13;;
12145;SDS011;6136;47.032;15.398;2024-03-23T07:06:45;7.90;;;6.83;;
12145;SDS011;6136;47.032;15.398;2024-03-23T07:09:12;25.53;;;9.03;;
12145;SDS011;6136;47.032;15.398;2024-03-23T07:11:38;8.97;;;6.80;;
12145;SDS011;6136;47.032;15.398;2024-03-23T07:14:07;10.25;;;7.63;;
12145;SDS011;6136;47.032;15.398;2024-03-23T07:16:33;8.17;;;6.77;;
12145;SDS011;6136;47.032;15.398;2024-03-23T07:19:00;10.67;;;6.90;;
12145;SDS011;6136;47.032;15.398;2024-03-23T07:21:26;14.57;;;7.60;;
12145;SDS011;6136;47.032;15.398;2024-03-23T07:23:53;10.00;;;7.10;;
12145;SDS011;6136;47.032;15.398;2024-03-23T07:26:19;8.73;;;7.57;;
12145;SDS011;6136;47.032;15.398;2024-03-23T07:28:46;10.47;;;6.93;;
12145;SDS011;6136;47.032;15.398;2024-03-23T07:31:15;10.97;;;7.97;;
12145;SDS011;6136;47.032;15.398;2024-03-23T07:33:42;11.03;;;6.70;;
12145;SDS011;6136;47.032;15.398;2024-03-23T07:36:09;9.13;;;7.07;;
12145;SDS011;6136;47.032;15.398;2024-03-23T07:38:37;12.80;;;8.07;;
12145;SDS011;6136;47.032;15.398;2024-03-23T07:41:03;12.50;;;8.03;;
12145;SDS011;6136;47.032;15.398;2024-03-23T07:43:31;10.50;;;8.03;;
12145;SDS011;6136;47.032;15.398;2024-03-23T07:45:58;11.10;;;7.40;;
12145;SDS011;6136;47.032;15.398;2024-03-23T07:48:26;10.83;;;7.47;;
12145;SDS011;6136;47.032;15.398;2024-03-23T07:51:00;11.03;;;7.40;;
12145;SDS011;6136;47.032;15.398;2024-03-23T07:53:28;10.07;;;8.37;;
12145;SDS011;6136;47.032;15.398;2024-03-23T07:55:55;12.73;;;7.47;;
12145;SDS011;6136;47.032;15.398;2024-03-23T07:58:23;9.33;;;7.33;;
12145;SDS011;6136;47.032;15.398;2024-03-23T08:00:49;9.43;;;6.63;;
12145;SDS011;6136;47.032;15.398;2024-03-23T08:03:16;13.17;;;7.53;;
12145;SDS011;6136;47.032;15.398;2024-03-23T08:05:44;9.97;;;7.20;;
12145;SDS011;6136;47.032;15.398;2024-03-23T08:08:11;11.83;;;8.23;;
12145;SDS011;6136;47.032;15.398;2024-03-23T08:10:37;12.00;;;8.70;;
12145;SDS011;6136;47.032;15.398;2024-03-23T08:13:14;11.80;;;8.53;;
12145;SDS011;6136;47.032;15.398;2024-03-23T08:15:40;15.73;;;9.07;;
12145;SDS011;6136;47.032;15.398;2024-03-23T08:18:07;10.27;;;9.20;;
12145;SDS011;6136;47.032;15.398;2024-03-23T08:20:33;9.53;;;8.20;;
12145;SDS011;6136;47.032;15.398;2024-03-23T08:23:02;10.87;;;7.90;;
12145;SDS011;6136;47.032;15.398;2024-03-23T08:25:30;9.33;;;7.90;;
12145;SDS011;6136;47.032;15.398;2024-03-23T08:27:58;10.03;;;8.23;;
12145;SDS011;6136;47.032;15.398;2024-03-23T08:30:24;11.17;;;7.67;;
12145;SDS011;6136;47.032;15.398;2024-03-23T08:32:51;11.97;;;7.67;;
12145;SDS011;6136;47.032;15.398;2024-03-23T08:35:17;9.43;;;8.23;;
12145;SDS011;6136;47.032;15.398;2024-03-23T08:37:45;10.57;;;7.37;;
12145;SDS011;6136;47.032;15.398;2024-03-23T08:40:13;17.53;;;7.40;;
12145;SDS011;6136;47.032;15.398;2024-03-23T08:42:41;10.20;;;7.23;;
12145;SDS011;6136;47.032;15.398;2024-03-23T08:45:07;10.77;;;6.27;;
12145;SDS011;6136;47.032;15.398;2024-03-23T08:47:34;11.93;;;7.37;;
12145;SDS011;6136;47.032;15.398;2024-03-23T08:50:01;6.97;;;6.37;;
12145;SDS011;6136;47.032;15.398;2024-03-23T08:52:29;8.10;;;7.20;;
12145;SDS011;6136;47.032;15.398;2024-03-23T08:54:55;9.87;;;6.40;;
12145;SDS011;6136;47.032;15.398;2024-03-23T08:57:24;9.32;;;6.75;;
12145;SDS011;6136;47.032;15.398;2024-03-23T08:59:50;9.82;;;7.25;;
12145;SDS011;6136;47.032;15.398;2024-03-23T09:02:17;8.48;;;6.00;;
12145;SDS011;6136;47.032;15.398;2024-03-23T09:04:43;9.73;;;6.18;;
12145;SDS011;6136;47.032;15.398;2024-03-23T09:07:11;8.05;;;5.75;;
12145;SDS011;6136;47.032;15.398;2024-03-23T09:09:38;7.95;;;5.47;;
12145;SDS011;6136;47.032;15.398;2024-03-23T09:12:05;5.35;;;4.93;;
12145;SDS011;6136;47.032;15.398;2024-03-23T09:14:33;6.50;;;5.20;;
12145;SDS011;6136;47.032;15.398;2024-03-23T09:17:00;6.00;;;4.93;;
12145;SDS011;6136;47.032;15.398;2024-03-23T09:19:27;8.13;;;5.07;;
12145;SDS011;6136;47.032;15.398;2024-03-23T09:21:54;6.32;;;4.88;;
12145;SDS011;6136;47.032;15.398;2024-03-23T09:24:21;5.45;;;4.97;;
12145;SDS011;6136;47.032;15.398;2024-03-23T09:26:48;6.53;;;4.38;;
12145;SDS011;6136;47.032;15.398;2024-03-23T09:29:14;8.02;;;4.57;;
12145;SDS011;6136;47.032;15.398;2024-03-23T09:31:42;5.10;;;4.30;;
12145;SDS011;6136;47.032;15.398;2024-03-23T09:34:09;5.03;;;4.53;;
12145;SDS011;6136;47.032;15.398;2024-03-23T09:36:36;6.85;;;4.40;;
12145;SDS011;6136;47.032;15.398;2024-03-23T09:39:02;5.47;;;4.70;;
12145;SDS011;6136;47.032;15.398;2024-03-23T09:41:31;5.30;;;4.72;;
12145;SDS011;6136;47.032;15.398;2024-03-23T09:43:57;6.10;;;5.50;;
12145;SDS011;6136;47.032;15.398;2024-03-23T09:46:24;6.07;;;5.47;;
12145;SDS011;6136;47.032;15.398;2024-03-23T09:48:52;9.05;;;5.50;;
12145;SDS011;6136;47.032;15.398;2024-03-23T09:51:19;8.48;;;5.13;;
12145;SDS011;6136;47.032;15.398;2024-03-23T09:53:45;7.63;;;5.05;;
12145;SDS011;6136;47.032;15.398;2024-03-23T09:56:13;6.93;;;5.07;;
12145;SDS011;6136;47.032;15.398;2024-03-23T09:58:39;6.95;;;4.90;;
12145;SDS011;6136;47.032;15.398;2024-03-23T10:01:07;5.70;;;5.15;;
12145;SDS011;6136;47.032;15.398;2024-03-23T10:03:41;6.88;;;4.50;;
12145;SDS011;6136;47.032;15.398;2024-03-23T10:06:10;7.88;;;5.60;;
12145;SDS011;6136;47.032;15.398;2024-03-23T10:08:38;5.53;;;5.00;;
12145;SDS011;6136;47.032;15.398;2024-03-23T10:11:12;6.28;;;4.85;;
12145;SDS011;6136;47.032;15.398;2024-03-23T10:13:41;5.00;;;4.50;;
12145;SDS011;6136;47.032;15.398;2024-03-23T10:16:08;5.13;;;4.57;;
12145;SDS011;6136;47.032;15.398;2024-03-23T10:18:39;5.90;;;4.90;;
12145;SDS011;6136;47.032;15.398;2024-03-23T10:21:06;6.43;;;5.25;;
12145;SDS011;6136;47.032;15.398;2024-03-23T10:23:37;4.82;;;4.43;;
12145;SDS011;6136;47.032;15.398;2024-03-23T10:26:17;5.00;;;4.28;;
12145;SDS011;6136;47.032;15.398;2024-03-23T10:28:53;6.78;;;4.13;;
12145;SDS011;6136;47.032;15.398;2024-03-23T10:31:23;4.03;;;3.53;;
12145;SDS011;6136;47.032;15.398;2024-03-23T10:33:50;6.40;;;4.57;;
12145;SDS011;6136;47.032;15.398;2024-03-23T10:36:20;4.80;;;3.65;;
12145;SDS011;6136;47.032;15.398;2024-03-23T10:38:49;5.25;;;4.18;;
12145;SDS011;6136;47.032;15.398;2024-03-23T10:41:16;4.93;;;3.63;;
12145;SDS011;6136;47.032;15.398;2024-03-23T10:43:44;10.43;;;3.65;;
12145;SDS011;6136;47.032;15.398;2024-03-23T10:46:12;4.35;;;3.65;;
12145;SDS011;6136;47.032;15.398;2024-03-23T10:48:39;3.90;;;3.50;;
12145;SDS011;6136;47.032;15.398;2024-03-23T10:51:05;4.28;;;3.78;;
12145;SDS011;6136;47.032;15.398;2024-03-23T10:53:34;3.92;;;3.38;;
12145;SDS011;6136;47.032;15.398;2024-03-23T10:56:04;3.78;;;3.47;;
12145;SDS011;6136;47.032;15.398;2024-03-23T10:58:39;3.45;;;2.95;;
12145;SDS011;6136;47.032;15.398;2024-03-23T11:01:07;6.07;;;4.20;;
12145;SDS011;6136;47.032;15.398;2024-03-23T11:03:37;2.88;;;2.67;;
12145;SDS011;6136;47.032;15.398;2024-03-23T11:06:05;3.10;;;2.72;;
12145;SDS011;6136;47.032;15.398;2024-03-23T11:08:34;3.22;;;2.92;;
12145;SDS011;6136;47.032;15.398;2024-03-23T11:11:15;4.03;;;3.70;;
12145;SDS011;6136;47.032;15.398;2024-03-23T11:13:44;3.50;;;3.20;;
12145;SDS011;6136;47.032;15.398;2024-03-23T11:16:14;3.45;;;3.15;;
12145;SDS011;6136;47.032;15.398;2024-03-23T11:18:42;4.00;;;3.70;;
12145;SDS011;6136;47.032;15.398;2024-03-23T11:21:09;4.70;;;4.05;;
12145;SDS011;6136;47.032;15.398;2024-03-23T11:23:36;4.00;;;3.70;;
12145;SDS011;6136;47.032;15.398;2024-03-23T11:26:02;4.68;;;4.28;;
12145;SDS011;6136;47.032;15.398;2024-03-23T11:28:35;4.78;;;4.32;;
12145;SDS011;6136;47.032;15.398;2024-03-23T11:31:01;4.90;;;4.50;;
12145;SDS011;6136;47.032;15.398;2024-03-23T11:33:36;5.00;;;4.60;;
12145;SDS011;6136;47.032;15.398;2024-03-23T11:36:02;5.82;;;4.28;;
12145;SDS011;6136;47.032;15.398;2024-03-23T11:38:29;5.35;;;4.72;;
12145;SDS011;6136;47.032;15.398;2024-03-23T11:41:02;4.75;;;4.35;;
12145;SDS011;6136;47.032;15.398;2024-03-23T11:43:30;4.50;;;4.10;;
12145;SDS011;6136;47.032;15.398;2024-03-23T11:45:58;4.28;;;3.88;;
12145;SDS011;6136;47.032;15.398;2024-03-23T11:48:28;4.65;;;4.25;;
12145;SDS011;6136;47.032;15.398;2024-03-23T11:50:56;4.20;;;3.90;;
12145;SDS011;6136;47.032;15.398;2024-03-23T11:53:24;6.93;;;4.38;;
12145;SDS011;6136;47.032;15.398;2024-03-23T11:55:53;4.50;;;4.10;;
12145;SDS011;6136;47.032;15.398;2024-03-23T11:58:22;5.35;;;4.47;;
12145;SDS011;6136;47.032;15.398;2024-03-23T12:00:50;6.00;;;4.80;;
12145;SDS011;6136;47.032;15.398;2024-03-23T12:03:19;5.82;;;4.13;;
12145;SDS011;6136;47.032;15.398;2024-03-23T12:05:48;4.82;;;4.43;;
12145;SDS011;6136;47.032;15.398;2024-03-23T12:08:19;4.40;;;4.00;;
12145;SDS011;6136;47.032;15.398;2024-03-23T12:10:47;4.63;;;4.22;;
12145;SDS011;6136;47.032;15.398;2024-03-23T12:13:16;4.88;;;4.22;;
12145;SDS011;6136;47.032;15.398;2024-03-23T12:15:43;4.65;;;4.25;;
12145;SDS011;6136;47.032;15.398;2024-03-23T12:18:11;7.30;;;4.40;;
12145;SDS011;6136;47.032;15.398;2024-03-23T12:20:39;4.80;;;4.30;;
12145;SDS011;6136;47.032;15.398;2024-03-23T12:23:07;5.22;;;4.50;;
12145;SDS011;6136;47.032;15.398;2024-03-23T12:25:35;4.20;;;3.90;;
12145;SDS011;6136;47.032;15.398;2024-03-23T12:28:02;4.10;;;3.75;;
12145;SDS011;6136;47.032;15.398;2024-03-23T12:30:32;6.45;;;3.53;;
12145;SDS011;6136;47.032;15.398;2024-03-23T12:33:00;4.15;;;3.85;;
12145;SDS011;6136;47.032;15.398;2024-03-23T12:35:26;3.75;;;3.45;;
12145;SDS011;6136;47.032;15.398;2024-03-23T12:37:55;3.65;;;3.35;;
12145;SDS011;6136;47.032;15.398;2024-03-23T12:40:21;5.07;;;3.97;;
12145;SDS011;6136;47.032;15.398;2024-03-23T12:42:48;5.35;;;3.72;;
12145;SDS011;6136;47.032;15.398;2024-03-23T12:45:14;9.38;;;3.95;;
12145;SDS011;6136;47.032;15.398;2024-03-23T12:47:42;3.75;;;3.42;;
12145;SDS011;6136;47.032;15.398;2024-03-23T12:50:08;3.72;;;3.33;;
12145;SDS011;6136;47.032;15.398;2024-03-23T12:52:36;4.60;;;3.58;;
12145;SDS011;6136;47.032;15.398;2024-03-23T12:55:04;4.05;;;3.03;;
12145;SDS011;6136;47.032;15.398;2024-03-23T12:57:32;3.00;;;2.78;;
12145;SDS011;6136;47.032;15.398;2024-03-23T12:59:58;3.60;;;3.25;;
12145;SDS011;6136;47.032;15.398;2024-03-23T13:02:25;3.53;;;3.22;;
12145;SDS011;6136;47.032;15.398;2024-03-23T13:04:52;3.08;;;2.70;;
12145;SDS011;6136;47.032;15.398;2024-03-23T13:07:20;4.28;;;3.30;;
12145;SDS011;6136;47.032;15.398;2024-03-23T13:09:47;3.97;;;3.13;;
12145;SDS011;6136;47.032;15.398;2024-03-23T13:12:17;3.22;;;2.90;;
12145;SDS011;6136;47.032;15.398;2024-03-23T13:14:44;4.03;;;3.13;;
12145;SDS011;6136;47.032;15.398;2024-03-23T13:17:11;7.13;;;2.80;;
12145;SDS011;6136;47.032;15.398;2024-03-23T13:19:37;4.53;;;3.38;;
12145;SDS011;6136;47.032;15.398;2024-03-23T13:22:05;2.80;;;2.60;;
12145;SDS011;6136;47.032;15.398;2024-03-23T13:24:31;4.25;;;2.83;;
12145;SDS011;6136;47.032;15.398;2024-03-23T13:26:58;3.20;;;2.60;;
12145;SDS011;6136;47.032;15.398;2024-03-23T13:29:26;2.88;;;2.67;;
12145;SDS011;6136;47.032;15.398;2024-03-23T13:31:53;3.28;;;2.92;;
12145;SDS011;6136;47.032;15.398;2024-03-23T13:34:19;5.75;;;3.70;;
12145;SDS011;6136;47.032;15.398;2024-03-23T13:36:46;3.38;;;3.08;;
12145;SDS011;6136;47.032;15.398;2024-03-23T13:39:14;4.05;;;3.25;;
12145;SDS011;6136;47.032;15.398;2024-03-23T13:41:41;2.85;;;2.65;;
12145;SDS011;6136;47.032;15.398;2024-03-23T13:44:08;6.70;;;3.00;;
12145;SDS011;6136;47.032;15.398;2024-03-23T13:46:38;5.03;;;3.85;;
12145;SDS011;6136;47.032;15.398;2024-03-23T13:49:05;3.83;;;3.53;;
12145;SDS011;6136;47.032;15.398;2024-03-23T13:51:32;3.35;;;3.05;;
12145;SDS011;6136;47.032;15.398;2024-03-23T13:53:58;3.53;;;3.22;;
12145;SDS011;6136;47.032;15.398;2024-03-23T13:56:27;4.20;;;3.53;;
12145;SDS011;6136;47.032;15.398;2024-03-23T13:58:54;5.25;;;3.70;;
12145;SDS011;6136;47.032;15.398;2024-03-23T14:01:21;4.40;;;3.65;;
12145;SDS011;6136;47.032;15.398;2024-03-23T14:03:49;4.38;;;3.97;;
12145;SDS011;6136;47.032;15.398;2024-03-23T14:06:16;3.70;;;3.40;;
12145;SDS011;6136;47.032;15.398;2024-03-23T14:08:42;3.78;;;3.03;;
12145;SDS011;6136;47.032;15.398;2024-03-23T14:11:09;3.88;;;3.58;;
12145;SDS011;6136;47.032;15.398;2024-03-23T14:13:36;3.83;;;3.53;;
12145;SDS011;6136;47.032;15.398;2024-03-23T14:16:03;3.67;;;3.38;;
12145;SDS011;6136;47.032;15.398;2024-03-23T14:18:30;6.68;;;4.13;;
12145;SDS011;6136;47.032;15.398;2024-03-23T14:20:59;3.72;;;3.42;;
12145;SDS011;6136;47.032;15.398;2024-03-23T14:23:25;4.10;;;3.55;;
12145;SDS011;6136;47.032;15.398;2024-03-23T14:25:54;3.38;;;3.08;;
12145;SDS011;6136;47.032;15.398;2024-03-23T14:28:20;3.63;;;3.33;;
12145;SDS011;6136;47.032;15.398;2024-03-23T14:30:48;4.07;;;3.78;;
12145;SDS011;6136;47.032;15.398;2024-03-23T14:33:15;4.00;;;3.70;;
12145;SDS011;6136;47.032;15.398;2024-03-23T14:35:42;4.22;;;3.83;;
12145;SDS011;6136;47.032;15.398;2024-03-23T14:38:09;5.45;;;3.97;;
12145;SDS011;6136;47.032;15.398;2024-03-23T14:40:37;3.78;;;3.47;;
12145;SDS011;6136;47.032;15.398;2024-03-23T14:43:03;4.47;;;3.80;;
12145;SDS011;6136;47.032;15.398;2024-03-23T14:45:30;5.07;;;3.78;;
12145;SDS011;6136;47.032;15.398;2024-03-23T14:47:56;3.78;;;3.47;;
12145;SDS011;6136;47.032;15.398;2024-03-23T14:50:24;4.65;;;3.75;;
12145;SDS011;6136;47.032;15.398;2024-03-23T14:52:50;4.28;;;3.88;;
12145;SDS011;6136;47.032;15.398;2024-03-23T14:55:19;3.90;;;3.60;;
12145;SDS011;6136;47.032;15.398;2024-03-23T14:57:45;4.80;;;3.90;;
12145;SDS011;6136;47.032;15.398;2024-03-23T15:00:12;3.83;;;3.42;;
12145;SDS011;6136;47.032;15.398;2024-03-23T15:02:39;3.83;;;3.53;;
12145;SDS011;6136;47.032;15.398;2024-03-23T15:05:06;4.72;;;3.88;;
12145;SDS011;6136;47.032;15.398;2024-03-23T15:07:35;5.82;;;3.83;;
12145;SDS011;6136;47.032;15.398;2024-03-23T15:10:03;7.45;;;3.53;;
12145;SDS011;6136;47.032;15.398;2024-03-23T15:12:35;4.75;;;3.80;;
12145;SDS011;6136;47.032;15.398;2024-03-23T15:15:02;7.93;;;3.65;;
12145;SDS011;6136;47.032;15.398;2024-03-23T15:17:28;4.43;;;4.03;;
12145;SDS011;6136;47.032;15.398;2024-03-23T15:20:00;5.88;;;3.95;;
12145;SDS011;6136;47.032;15.398;2024-03-23T15:22:26;14.93;;;2.67;;
12145;SDS011;6136;47.032;15.398;2024-03-23T15:24:53;16.00;;;2.03;;
12145;SDS011;6136;47.032;15.398;2024-03-23T15:27:19;10.35;;;2.28;;
12145;SDS011;6136;47.032;15.398;2024-03-23T15:29:47;5.78;;;2.10;;
12145;SDS011;6136;47.032;15.398;2024-03-23T15:32:14;8.30;;;1.83;;
12145;SDS011;6136;47.032;15.398;2024-03-23T15:34:43;5.90;;;1.38;;
12145;SDS011;6136;47.032;15.398;2024-03-23T15:37:09;6.47;;;1.98;;
12145;SDS011;6136;47.032;15.398;2024-03-23T15:39:36;3.25;;;1.00;;
12145;SDS011;6136;47.032;15.398;2024-03-23T15:42:02;3.70;;;0.90;;